createdAt,value
2017-11-08T00:02:19.556Z,27.40
2017-11-08T00:04:47.036Z,26.80
2017-11-08T00:07:14.490Z,28.70
2017-11-08T00:09:42.102Z,28.87
2017-11-08T00:12:09.585Z,27.63
2017-11-08T00:14:37.072Z,28.40
2017-11-08T00:17:08.311Z,27.03
2017-11-08T00:19:35.777Z,27.03
2017-11-08T00:22:07.832Z,28.63
2017-11-08T00:24:35.328Z,26.87
2017-11-08T00:27:02.794Z,26.83
2017-11-08T00:29:30.263Z,25.97
2017-11-08T00:31:57.744Z,28.13
2017-11-08T00:34:25.213Z,26.53
2017-11-08T00:36:52.706Z,28.43
2017-11-08T00:39:20.166Z,27.47
2017-11-08T00:41:47.654Z,28.07
2017-11-08T00:44:15.245Z,27.10
2017-11-08T00:46:42.745Z,26.10
2017-11-08T00:49:10.213Z,27.87
2017-11-08T00:51:37.688Z,26.30
2017-11-08T00:56:39.130Z,27.23
2017-11-08T00:59:07.613Z,25.60
2017-11-08T01:01:35.112Z,25.93
2017-11-08T01:04:02.593Z,26.50
2017-11-08T01:06:30.951Z,25.60
2017-11-08T01:08:58.524Z,26.20
2017-11-08T01:11:26.765Z,27.70
2017-11-08T01:13:54.245Z,25.17
2017-11-08T01:16:21.740Z,26.30
2017-11-08T01:18:49.211Z,25.80
2017-11-08T01:21:16.816Z,25.10
2017-11-08T01:23:44.528Z,23.77
2017-11-08T01:26:12.033Z,24.10
2017-11-08T01:28:39.555Z,25.07
2017-11-08T01:31:07.038Z,25.60
2017-11-08T01:33:34.501Z,27.07
2017-11-08T01:36:01.986Z,27.53
2017-11-08T01:38:30.201Z,29.47
2017-11-08T01:41:03.299Z,25.03
2017-11-08T01:43:30.759Z,25.60
2017-11-08T01:45:58.234Z,26.27
2017-11-08T01:48:25.704Z,25.53
2017-11-08T01:50:59.659Z,25.20
2017-11-08T01:53:27.125Z,25.63
2017-11-08T01:55:54.624Z,25.03
2017-11-08T01:58:22.850Z,26.27
2017-11-08T02:00:50.330Z,24.77
2017-11-08T02:03:17.796Z,24.20
2017-11-08T02:05:45.267Z,25.60
2017-11-08T02:08:15.332Z,24.47
2017-11-08T02:10:42.814Z,25.93
2017-11-08T02:13:10.284Z,24.13
2017-11-08T02:15:37.756Z,25.90
2017-11-08T02:18:13.906Z,24.50
2017-11-08T02:20:41.493Z,24.40
2017-11-08T02:23:08.966Z,24.40
2017-11-08T02:25:36.676Z,24.60
2017-11-08T02:28:04.150Z,24.53
2017-11-08T02:30:33.115Z,25.17
2017-11-08T02:33:00.589Z,23.50
2017-11-08T02:35:28.076Z,22.90
2017-11-08T02:37:56.320Z,24.17
2017-11-08T02:40:23.793Z,24.20
2017-11-08T02:42:51.272Z,23.83
2017-11-08T02:45:19.520Z,24.83
2017-11-08T02:47:46.990Z,23.20
2017-11-08T02:50:15.208Z,23.33
2017-11-08T02:52:42.692Z,24.40
2017-11-08T02:55:14.182Z,24.40
2017-11-08T02:57:42.430Z,25.13
2017-11-08T03:00:09.899Z,24.47
2017-11-08T03:02:43.117Z,22.60
2017-11-08T03:05:16.386Z,22.20
2017-11-08T03:07:44.640Z,23.07
2017-11-08T03:10:12.100Z,22.70
2017-11-08T03:12:39.580Z,23.60
2017-11-08T03:15:07.821Z,22.20
2017-11-08T03:17:35.302Z,22.20
2017-11-08T03:20:02.782Z,21.07
2017-11-08T03:22:31.008Z,21.97
2017-11-08T03:24:58.486Z,22.43
2017-11-08T03:27:26.014Z,22.33
2017-11-08T03:29:53.496Z,22.07
2017-11-08T03:32:21.316Z,20.97
2017-11-08T03:34:48.782Z,22.80
2017-11-08T03:37:16.253Z,21.90
2017-11-08T03:39:43.731Z,22.13
2017-11-08T03:42:11.213Z,21.90
2017-11-08T03:44:39.693Z,22.40
2017-11-08T03:47:07.928Z,21.23
2017-11-08T03:49:35.416Z,21.00
2017-11-08T03:52:02.944Z,19.93
2017-11-08T03:54:30.402Z,19.80
2017-11-08T03:56:57.858Z,22.17
2017-11-08T03:59:25.334Z,20.97
2017-11-08T04:01:53.572Z,21.47
2017-11-08T04:04:21.086Z,20.63
2017-11-08T04:06:49.370Z,20.20
2017-11-08T04:09:17.616Z,20.30
2017-11-08T04:11:45.087Z,18.80
2017-11-08T04:14:12.557Z,19.37
2017-11-08T04:16:40.789Z,21.37
2017-11-08T04:19:08.278Z,20.43
2017-11-08T04:21:37.337Z,20.60
2017-11-08T04:24:04.809Z,20.33
2017-11-08T04:26:33.170Z,21.13
2017-11-08T04:29:00.630Z,19.90
2017-11-08T04:31:28.304Z,20.43
2017-11-08T04:33:56.006Z,20.27
2017-11-08T04:36:23.485Z,20.23
2017-11-08T04:38:50.968Z,17.77
2017-11-08T04:41:18.451Z,19.70
2017-11-08T04:43:45.914Z,16.53
2017-11-08T04:46:14.177Z,17.17
2017-11-08T04:48:41.652Z,18.80
2017-11-08T04:51:09.990Z,20.17
2017-11-08T04:53:37.513Z,18.30
2017-11-08T04:56:05.113Z,20.20
2017-11-08T04:58:32.581Z,16.87
2017-11-08T05:01:00.053Z,17.57
2017-11-08T05:03:28.306Z,17.13
2017-11-08T05:05:55.764Z,17.17
2017-11-08T05:08:23.385Z,17.10
2017-11-08T05:10:50.920Z,17.97
2017-11-08T05:13:19.177Z,18.00
2017-11-08T05:15:47.402Z,15.87
2017-11-08T05:18:14.927Z,16.67
2017-11-08T05:20:43.165Z,15.57
2017-11-08T05:23:10.637Z,17.03
2017-11-08T05:25:38.184Z,17.33
2017-11-08T05:28:05.689Z,15.60
2017-11-08T05:30:33.261Z,15.37
2017-11-08T05:33:00.928Z,15.27
2017-11-08T05:35:28.399Z,14.40
2017-11-08T05:37:55.885Z,16.00
2017-11-08T05:40:24.873Z,15.63
2017-11-08T05:42:52.336Z,15.60
2017-11-08T05:45:21.323Z,16.90
2017-11-08T05:47:48.800Z,15.70
2017-11-08T05:50:16.296Z,16.33
2017-11-08T05:52:43.757Z,15.57
2017-11-08T05:55:11.245Z,15.97
2017-11-08T05:57:38.721Z,15.97
2017-11-08T06:00:06.181Z,15.20
2017-11-08T06:02:34.556Z,15.80
2017-11-08T06:05:02.793Z,15.47
2017-11-08T06:07:30.280Z,16.13
2017-11-08T06:09:57.760Z,14.97
2017-11-08T06:12:26.232Z,17.13
2017-11-08T06:14:54.480Z,16.03
2017-11-08T06:17:21.934Z,14.97
2017-11-08T06:19:49.475Z,14.87
2017-11-08T06:22:16.930Z,15.67
2017-11-08T06:24:44.416Z,15.77
2017-11-08T06:27:11.885Z,16.53
2017-11-08T06:29:39.379Z,16.53
2017-11-08T06:32:06.997Z,18.00
2017-11-08T06:34:34.500Z,16.53
2017-11-08T06:37:02.000Z,17.20
2017-11-08T06:39:29.471Z,17.07
2017-11-08T06:41:57.153Z,16.73
2017-11-08T06:44:25.428Z,16.17
2017-11-08T06:46:53.673Z,17.83
2017-11-08T06:49:21.140Z,15.67
2017-11-08T06:51:48.613Z,16.40
2017-11-08T06:54:16.862Z,16.53
2017-11-08T06:56:44.357Z,16.90
2017-11-08T06:59:11.813Z,17.77
2017-11-08T07:01:39.416Z,18.60
2017-11-08T07:04:06.889Z,18.30
2017-11-08T07:06:37.176Z,17.87
2017-11-08T07:09:04.645Z,18.77
2017-11-08T07:11:32.108Z,17.67
2017-11-08T07:13:59.577Z,18.30
2017-11-08T07:16:27.071Z,18.80
2017-11-08T07:18:55.347Z,19.40
2017-11-08T07:21:23.561Z,17.43
2017-11-08T07:23:51.048Z,19.00
2017-11-08T07:26:18.598Z,17.73
2017-11-08T07:28:46.178Z,19.37
2017-11-08T07:31:13.753Z,19.43
2017-11-08T07:33:42.012Z,21.30
2017-11-08T07:36:09.495Z,19.43
2017-11-08T07:38:37.727Z,20.33
2017-11-08T07:41:05.301Z,19.37
2017-11-08T07:43:32.944Z,18.63
2017-11-08T07:46:00.444Z,18.80
2017-11-08T07:48:29.188Z,19.57
2017-11-08T07:50:56.672Z,18.73
2017-11-08T07:53:26.082Z,18.60
2017-11-08T07:55:59.930Z,20.57
2017-11-08T07:58:27.592Z,18.87
2017-11-08T08:00:55.102Z,19.20
2017-11-08T08:03:23.339Z,17.97
2017-11-08T08:05:50.816Z,19.10
2017-11-08T08:08:18.487Z,18.57
2017-11-08T08:10:45.954Z,17.60
2017-11-08T08:13:14.195Z,17.33
2017-11-08T08:15:41.684Z,17.80
2017-11-08T08:18:09.913Z,18.17
2017-11-08T08:20:37.416Z,18.60
2017-11-08T08:23:04.896Z,19.30
2017-11-08T08:25:32.370Z,18.20
2017-11-08T08:27:59.860Z,19.93
2017-11-08T08:30:27.333Z,20.50
2017-11-08T08:32:54.835Z,20.33
2017-11-08T08:35:22.311Z,22.47
2017-11-08T08:37:49.795Z,21.60
2017-11-08T08:40:17.285Z,21.50
2017-11-08T08:42:45.569Z,21.27
2017-11-08T08:45:13.822Z,23.50
2017-11-08T08:47:42.046Z,22.90
2017-11-08T08:50:09.509Z,23.07
2017-11-08T08:52:37.658Z,23.17
2017-11-08T08:55:05.128Z,22.33
2017-11-08T08:57:32.608Z,25.03
2017-11-08T09:00:00.094Z,22.30
2017-11-08T09:02:31.322Z,23.33
2017-11-08T09:04:58.974Z,22.40
2017-11-08T09:07:26.454Z,23.63
2017-11-08T09:09:54.682Z,22.67
2017-11-08T09:12:22.177Z,22.70
2017-11-08T09:14:49.649Z,22.30
2017-11-08T09:17:17.125Z,23.73
2017-11-08T09:19:44.604Z,23.80
2017-11-08T09:22:12.112Z,23.00
2017-11-08T09:24:42.237Z,22.90
2017-11-08T09:27:09.704Z,24.00
2017-11-08T09:29:39.856Z,22.80
2017-11-08T09:32:09.366Z,23.10
2017-11-08T09:34:36.839Z,25.53
2017-11-08T09:37:04.305Z,23.47
2017-11-08T09:39:31.906Z,24.47
2017-11-08T09:42:00.138Z,24.70
2017-11-08T09:44:27.621Z,24.00
2017-11-08T09:46:57.900Z,24.50
2017-11-08T09:49:25.363Z,24.10
2017-11-08T09:51:52.842Z,24.40
2017-11-08T09:54:20.318Z,24.50
2017-11-08T09:56:47.789Z,27.40
2017-11-08T09:59:16.853Z,27.70
2017-11-08T10:01:44.346Z,27.70
2017-11-08T10:04:12.577Z,24.23
2017-11-08T10:06:40.483Z,25.93
2017-11-08T10:09:07.952Z,28.00
2017-11-08T10:11:39.031Z,27.00
2017-11-08T10:14:07.230Z,28.30
2017-11-08T10:16:34.706Z,28.33
2017-11-08T10:19:02.947Z,28.10
2017-11-08T10:21:30.401Z,29.00
2017-11-08T10:23:58.517Z,30.03
2017-11-08T10:26:26.972Z,33.13
2017-11-08T10:28:54.449Z,34.10
2017-11-08T10:31:23.443Z,33.80
2017-11-08T10:33:51.705Z,33.63
2017-11-08T10:36:19.282Z,35.83
2017-11-08T10:38:47.505Z,36.60
2017-11-08T10:41:14.975Z,33.87
2017-11-08T10:43:42.391Z,38.93
2017-11-08T10:46:09.858Z,38.70
2017-11-08T10:48:38.160Z,40.00
2017-11-08T10:51:12.912Z,39.33
2017-11-08T10:53:40.379Z,40.90
2017-11-08T10:56:09.794Z,41.07
2017-11-08T10:58:37.270Z,41.90
2017-11-08T11:01:04.861Z,42.90
2017-11-08T11:03:32.387Z,41.63
2017-11-08T11:05:59.908Z,44.27
2017-11-08T11:08:34.021Z,44.63
2017-11-08T11:11:01.551Z,44.07
2017-11-08T11:13:29.816Z,45.50
2017-11-08T11:15:58.133Z,46.67
2017-11-08T11:18:25.626Z,45.87
2017-11-08T11:20:53.990Z,45.73
2017-11-08T11:23:21.486Z,47.47
2017-11-08T11:25:50.895Z,48.13
2017-11-08T11:28:18.412Z,48.33
2017-11-08T11:30:45.903Z,48.60
2017-11-08T11:33:13.482Z,48.70
2017-11-08T11:35:41.742Z,49.83
2017-11-08T11:38:11.042Z,51.00
2017-11-08T11:40:38.506Z,47.73
2017-11-08T11:43:06.775Z,49.20
2017-11-08T11:45:34.242Z,50.37
2017-11-08T11:48:01.728Z,50.83
2017-11-08T11:50:31.996Z,48.13
2017-11-08T11:52:59.493Z,49.17
2017-11-08T11:55:27.745Z,51.40
2017-11-08T11:57:55.222Z,49.47
2017-11-08T12:00:23.457Z,51.13
2017-11-08T12:02:50.931Z,49.33
2017-11-08T12:05:18.424Z,53.07
2017-11-08T12:07:46.659Z,52.97
2017-11-08T12:10:14.146Z,49.73
2017-11-08T12:12:42.371Z,48.13
2017-11-08T12:15:09.945Z,49.60
2017-11-08T12:17:37.437Z,47.30
2017-11-08T12:20:05.697Z,46.97
2017-11-08T12:22:33.174Z,49.00
2017-11-08T12:25:01.623Z,47.23
2017-11-08T12:27:31.977Z,49.27
2017-11-08T12:30:00.340Z,49.30
2017-11-08T12:32:27.927Z,49.37
2017-11-08T12:34:59.082Z,50.70
2017-11-08T12:37:27.519Z,49.63
2017-11-08T12:39:57.600Z,49.80
2017-11-08T12:42:26.861Z,50.70
2017-11-08T12:45:12.786Z,56.33
2017-11-08T12:47:40.283Z,50.53
2017-11-08T12:50:08.334Z,49.03
2017-11-08T12:52:35.936Z,50.77
2017-11-08T12:55:04.250Z,52.10
2017-11-08T12:57:36.593Z,49.83
2017-11-08T13:00:04.931Z,50.80
2017-11-08T13:02:32.438Z,53.10
2017-11-08T13:04:59.917Z,50.77
2017-11-08T13:07:27.390Z,51.77
2017-11-08T13:09:54.869Z,51.77
2017-11-08T13:12:22.356Z,52.87
2017-11-08T13:14:50.620Z,52.57
2017-11-08T13:17:18.927Z,51.40
2017-11-08T13:19:46.391Z,52.30
2017-11-08T13:22:13.934Z,52.40
2017-11-08T13:24:41.430Z,51.43
2017-11-08T13:27:08.925Z,53.50
2017-11-08T13:29:36.387Z,53.70
2017-11-08T13:32:05.215Z,54.20
2017-11-08T13:34:32.699Z,56.27
2017-11-08T13:37:00.181Z,52.83
2017-11-08T13:39:27.661Z,51.60
2017-11-08T13:41:55.916Z,52.93
2017-11-08T13:44:23.399Z,54.20
2017-11-08T13:46:51.614Z,52.70
2017-11-08T13:49:19.107Z,48.53
2017-11-08T13:51:47.355Z,48.83
2017-11-08T13:54:14.879Z,51.73
2017-11-08T13:56:42.448Z,52.40
2017-11-08T13:59:09.937Z,51.90
2017-11-08T14:01:37.400Z,51.33
2017-11-08T14:04:06.699Z,52.30
2017-11-08T14:06:34.185Z,50.43
2017-11-08T14:09:02.419Z,48.23
2017-11-08T14:11:29.922Z,47.17
2017-11-08T14:13:57.476Z,49.23
2017-11-08T14:16:25.989Z,46.50
2017-11-08T14:18:53.466Z,46.87
2017-11-08T14:21:21.650Z,46.53
2017-11-08T14:23:49.133Z,48.93
2017-11-08T14:26:19.073Z,46.67
2017-11-08T14:28:47.307Z,46.27
2017-11-08T14:31:14.771Z,47.07
2017-11-08T14:33:42.246Z,46.20
2017-11-08T14:36:10.495Z,47.83
2017-11-08T14:38:38.011Z,47.73
2017-11-08T14:41:06.113Z,45.50
2017-11-08T14:43:33.584Z,48.43
2017-11-08T14:46:01.135Z,45.67
2017-11-08T14:48:28.802Z,46.33
2017-11-08T14:50:56.327Z,47.40
2017-11-08T14:53:23.793Z,47.60
2017-11-08T14:55:51.272Z,48.17
2017-11-08T14:58:18.734Z,45.53
2017-11-08T15:00:46.232Z,48.83
2017-11-08T15:03:13.701Z,45.83
2017-11-08T15:05:41.203Z,44.30
2017-11-08T15:08:08.665Z,46.47
2017-11-08T15:10:36.188Z,43.40
2017-11-08T15:13:03.662Z,43.07
2017-11-08T15:15:33.467Z,42.83
2017-11-08T15:18:00.939Z,41.73
2017-11-08T15:20:29.217Z,40.43
2017-11-08T15:22:56.875Z,41.40
2017-11-08T15:25:24.355Z,40.10
2017-11-08T15:27:51.866Z,42.17
2017-11-08T15:30:25.054Z,40.00
2017-11-08T15:32:52.528Z,40.73
2017-11-08T15:35:20.799Z,39.40
2017-11-08T15:37:48.796Z,39.60
2017-11-08T15:40:36.227Z,42.10
2017-11-08T15:43:04.802Z,40.27
2017-11-08T15:45:32.265Z,42.17
2017-11-08T15:47:59.993Z,43.27
2017-11-08T15:50:27.479Z,41.40
2017-11-08T15:52:54.955Z,43.53
2017-11-08T15:55:24.857Z,42.47
2017-11-08T15:57:52.404Z,41.37
2017-11-08T16:00:20.325Z,40.20
2017-11-08T16:02:51.642Z,41.27
2017-11-08T16:05:21.155Z,40.83
2017-11-08T16:07:48.962Z,39.87
2017-11-08T16:23:16.462Z,40.57
2017-11-08T16:25:46.462Z,40.93
2017-11-08T16:28:14.694Z,42.20
2017-11-08T16:30:42.189Z,40.97
2017-11-08T16:33:09.667Z,41.33
2017-11-08T16:35:37.945Z,40.27
2017-11-08T16:38:06.265Z,39.37
2017-11-08T16:40:33.746Z,40.20
2017-11-08T16:43:01.241Z,40.20
2017-11-08T16:45:29.516Z,40.43
2017-11-08T16:47:57.761Z,40.13
2017-11-08T16:50:25.370Z,41.07
2017-11-08T16:52:52.956Z,40.00
2017-11-08T16:55:20.439Z,39.90
2017-11-08T16:57:47.945Z,39.60
2017-11-08T17:00:15.424Z,40.00
2017-11-08T17:02:42.902Z,38.40
2017-11-08T17:05:10.385Z,39.77
2017-11-08T17:07:39.419Z,41.40
2017-11-08T17:10:07.502Z,41.10
2017-11-08T17:22:20.073Z,38.87
2017-11-08T17:24:47.563Z,39.50
2017-11-08T17:27:15.050Z,37.70
2017-11-08T17:29:43.302Z,37.97
2017-11-08T17:32:11.568Z,39.53
2017-11-08T17:34:39.044Z,37.50
2017-11-08T17:37:07.286Z,39.40
2017-11-08T17:39:34.767Z,38.10
2017-11-08T17:42:03.099Z,38.73
2017-11-08T17:44:30.767Z,39.13
2017-11-08T17:46:58.329Z,37.10
2017-11-08T17:49:25.941Z,39.90
2017-11-08T17:51:54.192Z,38.17
2017-11-08T17:54:21.648Z,37.17
2017-11-08T17:56:49.317Z,38.70
2017-11-08T17:59:16.784Z,40.40
2017-11-08T18:01:45.024Z,39.40
2017-11-08T18:04:12.504Z,40.80
2017-11-08T18:06:40.057Z,39.80
2017-11-08T18:09:07.932Z,39.53
2017-11-08T18:11:35.394Z,40.93
2017-11-08T18:14:03.661Z,41.63
2017-11-08T18:16:31.376Z,41.57
2017-11-08T18:18:58.875Z,43.03
2017-11-08T18:21:26.480Z,42.90
2017-11-08T18:23:54.059Z,41.17
2017-11-08T18:26:21.877Z,41.73
2017-11-08T18:28:50.329Z,40.60
2017-11-08T18:31:17.939Z,40.30
2017-11-08T18:33:46.512Z,37.23
2017-11-08T18:36:18.416Z,37.10
2017-11-08T18:38:45.913Z,38.53
2017-11-08T18:41:13.362Z,38.83
2017-11-08T18:43:40.982Z,40.27
2017-11-08T18:46:08.443Z,38.83
2017-11-08T18:48:35.961Z,37.70
2017-11-08T18:51:03.417Z,38.50
2017-11-08T18:53:30.884Z,36.13
2017-11-08T18:55:58.357Z,37.03
2017-11-08T18:58:25.822Z,36.90
2017-11-08T19:00:53.300Z,38.47
2017-11-08T19:03:20.763Z,39.30
2017-11-08T19:05:48.285Z,37.83
2017-11-08T19:08:15.760Z,40.17
2017-11-08T19:10:43.248Z,39.57
2017-11-08T19:13:11.509Z,40.93
2017-11-08T19:15:39.027Z,39.07
2017-11-08T19:18:06.503Z,40.30
2017-11-08T19:20:34.050Z,40.93
2017-11-08T19:23:01.559Z,39.80
2017-11-08T19:25:29.028Z,41.67
2017-11-08T19:27:57.258Z,40.67
2017-11-08T19:30:24.762Z,40.57
2017-11-08T19:32:53.007Z,41.77
2017-11-08T19:35:20.497Z,37.70
2017-11-08T19:37:48.725Z,40.33
2017-11-08T19:40:16.222Z,41.80
2017-11-08T19:42:44.610Z,41.03
2017-11-08T19:45:12.102Z,42.17
2017-11-08T19:47:39.577Z,42.77
2017-11-08T19:50:07.089Z,42.60
2017-11-08T19:52:34.564Z,42.33
2017-11-08T19:55:02.026Z,42.37
2017-11-08T19:57:29.514Z,44.23
2017-11-08T19:59:56.987Z,43.73
2017-11-08T20:02:24.535Z,41.00
2017-11-08T20:04:52.216Z,40.80
2017-11-08T20:07:20.638Z,41.90
2017-11-08T20:09:48.151Z,43.37
2017-11-08T20:12:16.398Z,41.83
2017-11-08T20:14:43.890Z,42.80
2017-11-08T20:17:12.138Z,39.47
2017-11-08T20:19:39.621Z,43.33
2017-11-08T20:22:07.846Z,39.13
2017-11-08T20:24:35.384Z,42.00
2017-11-08T20:27:02.852Z,42.00
2017-11-08T20:29:30.331Z,44.47
2017-11-08T20:31:57.785Z,41.10
2017-11-08T20:34:25.270Z,44.67
2017-11-08T20:36:53.543Z,43.57
2017-11-08T20:39:22.130Z,40.93
2017-11-08T20:41:59.770Z,43.43
2017-11-08T20:44:32.764Z,42.57
2017-11-08T20:47:06.140Z,42.63
2017-11-08T20:49:34.575Z,42.87
2017-11-08T20:52:02.127Z,40.30
2017-11-08T20:54:29.623Z,43.20
2017-11-08T20:56:57.888Z,42.33
2017-11-08T20:59:26.340Z,39.13
2017-11-08T21:01:54.235Z,40.97
2017-11-08T21:04:22.501Z,40.23
2017-11-08T21:06:50.003Z,41.47
2017-11-08T21:09:17.511Z,40.20
2017-11-08T21:12:14.069Z,39.80
2017-11-08T21:14:41.996Z,40.23
2017-11-08T21:17:10.066Z,37.83
2017-11-08T21:19:43.037Z,40.00
2017-11-08T21:22:10.828Z,38.67
2017-11-08T21:24:38.362Z,40.83
2017-11-08T21:27:05.844Z,43.27
2017-11-08T21:29:37.996Z,38.20
2017-11-08T21:32:10.340Z,41.73
2017-11-08T21:34:37.826Z,44.10
2017-11-08T21:37:05.322Z,42.37
2017-11-08T21:39:33.992Z,41.83
2017-11-08T21:42:04.619Z,40.97
2017-11-08T21:44:32.884Z,42.27
2017-11-08T21:47:05.047Z,43.70
2017-11-08T21:49:33.677Z,45.70
2017-11-08T21:52:07.846Z,44.40
2017-11-08T21:54:36.323Z,43.03
2017-11-08T21:57:09.210Z,44.80
2017-11-08T21:59:44.114Z,41.30
2017-11-08T22:02:11.948Z,42.07
2017-11-08T22:04:52.940Z,40.23
2017-11-08T22:07:20.636Z,42.00
2017-11-08T22:09:48.124Z,44.60
2017-11-08T22:12:20.718Z,42.57
2017-11-08T22:14:53.406Z,43.87
2017-11-08T22:17:23.776Z,41.57
2017-11-08T22:19:55.289Z,43.20
2017-11-08T22:22:22.816Z,40.50
2017-11-08T22:24:52.112Z,42.07
2017-11-08T22:27:19.619Z,40.00
2017-11-08T22:29:54.284Z,45.60
2017-11-08T22:32:22.126Z,41.07
2017-11-08T22:34:49.704Z,43.77
2017-11-08T22:37:17.227Z,45.53
2017-11-08T22:39:48.602Z,42.83
2017-11-08T22:42:16.502Z,43.90
2017-11-08T22:44:44.960Z,43.27
2017-11-08T22:47:13.955Z,43.47
2017-11-08T22:49:41.839Z,43.07
2017-11-08T22:52:10.363Z,45.27
2017-11-08T22:54:37.976Z,44.10
2017-11-08T22:57:09.340Z,43.60
2017-11-08T22:59:36.864Z,44.57
2017-11-08T23:02:04.337Z,42.93
2017-11-08T23:04:31.823Z,42.30
2017-11-08T23:06:59.314Z,42.63
2017-11-08T23:09:26.781Z,42.47
2017-11-08T23:11:54.851Z,42.80
2017-11-08T23:14:22.494Z,40.37
2017-11-08T23:16:50.195Z,42.20
2017-11-08T23:19:17.709Z,40.93
2017-11-08T23:21:45.182Z,43.90
2017-11-08T23:24:12.655Z,41.10
2017-11-08T23:26:40.131Z,43.90
2017-11-08T23:29:07.607Z,43.10
2017-11-08T23:31:35.838Z,40.60
2017-11-08T23:34:03.341Z,43.17
2017-11-08T23:36:31.573Z,45.47
2017-11-08T23:38:59.059Z,42.70
2017-11-08T23:41:27.306Z,42.00
2017-11-08T23:43:54.766Z,44.90
2017-11-08T23:46:22.238Z,42.20
2017-11-08T23:48:49.773Z,40.50
2017-11-08T23:51:17.234Z,42.13
2017-11-08T23:53:44.702Z,40.83
2017-11-08T23:56:12.167Z,41.63
2017-11-08T23:58:39.642Z,40.77
